Time;durP1;ratioP1;P1;durP2;ratioP2;P2;SDS_P1;SDS_P2;PMS_P1;PMS_P2;Temp;Humidity;BMP_temperature;BMP_pressure;BME280_temperature;BME280_humidity;BME280_pressure;Samples;Min_cycle;Max_cycle;Signal;HPM_P1;HPM_P2
2021/11/18 00:01:31;;;;;;;81.27;34.57;;;5.90;99.90;;;;;;4442213;32;20590;-69
2021/11/18 00:03:58;;;;;;;77.60;33.00;;;5.90;99.90;;;;;;4442471;32;20180;-69
2021/11/18 00:06:25;;;;;;;72.43;32.43;;;6.00;99.90;;;;;;4442354;32;20186;-69
2021/11/18 00:08:52;;;;;;;69.30;31.73;;;6.00;99.90;;;;;;4456052;32;20442;-69
2021/11/18 00:11:21;;;;;;;67.90;30.10;;;6.00;99.90;;;;;;4441424;32;20587;-69
2021/11/18 00:13:54;;;;;;;55.77;27.40;;;6.00;99.90;;;;;;4456817;32;20400;-69
2021/11/18 00:16:21;;;;;;;64.33;28.73;;;6.00;99.90;;;;;;4440819;32;20215;-69
2021/11/18 00:18:49;;;;;;;56.77;26.60;;;6.00;99.90;;;;;;4456575;32;20415;-69
2021/11/18 00:21:24;;;;;;;62.20;27.23;;;6.00;99.90;;;;;;4406603;32;20170;-69
2021/11/18 00:23:53;;;;;;;53.23;26.60;;;6.00;99.90;;;;;;4407698;32;20468;-69
2021/11/18 00:26:21;;;;;;;54.27;25.73;;;6.00;99.90;;;;;;4394202;32;20191;-69
2021/11/18 00:28:48;;;;;;;57.53;26.57;;;6.00;99.90;;;;;;4394563;32;20233;-70
2021/11/18 00:31:20;;;;;;;51.53;25.63;;;6.10;99.90;;;;;;4408502;32;20451;-69
2021/11/18 00:33:47;;;;;;;52.20;25.17;;;6.10;99.90;;;;;;4408110;32;20151;-69
2021/11/18 00:36:15;;;;;;;53.10;25.37;;;6.10;99.90;;;;;;4402706;32;20186;-69
2021/11/18 00:38:43;;;;;;;50.60;23.57;;;6.10;99.90;;;;;;4415879;32;20217;-69
2021/11/18 00:41:11;;;;;;;49.43;23.77;;;6.10;99.90;;;;;;4454989;32;20233;-69
2021/11/18 00:43:38;;;;;;;49.63;23.30;;;6.10;99.90;;;;;;4455340;32;20264;-69
2021/11/18 00:46:05;;;;;;;43.93;21.93;;;6.10;99.90;;;;;;4454419;32;20173;-69
2021/11/18 00:48:32;;;;;;;44.53;22.67;;;6.10;99.90;;;;;;4451533;32;20191;-69
2021/11/18 00:51:03;;;;;;;43.77;21.30;;;6.10;99.90;;;;;;4438368;32;20233;-69
2021/11/18 00:53:39;;;;;;;44.77;22.17;;;6.10;99.90;;;;;;4440582;32;20436;-69
2021/11/18 00:56:07;;;;;;;44.20;20.47;;;6.10;99.90;;;;;;4425076;32;20184;-69
2021/11/18 00:58:34;;;;;;;38.47;20.33;;;6.10;99.90;;;;;;4441306;32;20191;-69
2021/11/18 01:01:02;;;;;;;41.07;20.40;;;6.10;99.90;;;;;;4437637;32;20205;-69
2021/11/18 01:03:31;;;;;;;38.53;20.13;;;6.10;99.90;;;;;;4439011;32;20456;-68
2021/11/18 01:05:58;;;;;;;36.97;19.50;;;6.10;99.90;;;;;;4437523;32;20258;-68
2021/11/18 01:08:25;;;;;;;35.57;19.47;;;6.10;99.90;;;;;;4440906;32;20497;-68
2021/11/18 01:11:02;;;;;;;38.10;19.23;;;6.10;99.90;;;;;;4440022;32;20147;-69
2021/11/18 01:13:30;;;;;;;37.07;18.87;;;6.10;99.90;;;;;;4439329;32;20543;-69
2021/11/18 01:16:00;;;;;;;37.50;19.20;;;6.10;99.90;;;;;;4438853;32;20200;-69
2021/11/18 01:18:27;;;;;;;35.07;18.27;;;6.10;99.90;;;;;;4437908;32;20203;-69
2021/11/18 01:20:55;;;;;;;36.60;19.20;;;6.10;99.90;;;;;;4437463;32;20233;-69
2021/11/18 01:23:27;;;;;;;35.80;19.13;;;6.00;99.90;;;;;;4442037;32;20186;-69
2021/11/18 01:25:54;;;;;;;35.33;19.07;;;6.10;99.90;;;;;;4440322;32;20205;-69
2021/11/18 01:28:22;;;;;;;36.23;18.67;;;6.10;99.90;;;;;;4441409;32;20179;-69
2021/11/18 01:30:50;;;;;;;33.47;17.73;;;6.10;99.90;;;;;;4440580;32;20463;-69
2021/11/18 01:33:17;;;;;;;34.50;17.60;;;6.10;99.90;;;;;;4441770;32;20170;-68
2021/11/18 01:35:48;;;;;;;32.43;17.07;;;6.10;99.90;;;;;;4440060;32;20227;-69
2021/11/18 01:38:15;;;;;;;33.67;17.43;;;6.10;99.90;;;;;;4441704;32;20192;-69
2021/11/18 01:40:51;;;;;;;32.63;16.97;;;6.10;99.90;;;;;;4439947;32;20178;-69
2021/11/18 01:43:21;;;;;;;33.43;17.07;;;6.10;99.90;;;;;;4441962;32;20201;-69
2021/11/18 01:45:49;;;;;;;31.47;16.43;;;6.10;99.90;;;;;;4441599;32;20233;-69
2021/11/18 01:48:16;;;;;;;29.03;16.83;;;6.10;99.90;;;;;;4456050;32;20432;-69
2021/11/18 01:50:47;;;;;;;31.07;16.83;;;6.10;99.90;;;;;;4440079;32;20174;-69
2021/11/18 01:53:17;;;;;;;31.13;16.07;;;6.00;99.90;;;;;;4440831;32;20189;-69
2021/11/18 01:55:46;;;;;;;32.23;17.03;;;6.00;99.90;;;;;;4428392;32;20554;-69
2021/11/18 01:58:14;;;;;;;31.33;16.27;;;6.00;99.90;;;;;;4455907;32;20173;-69
2021/11/18 02:00:51;;;;;;;33.87;16.33;;;6.00;99.90;;;;;;4459122;32;20229;-69
2021/11/18 02:03:19;;;;;;;30.30;16.07;;;6.00;99.90;;;;;;4444359;32;20183;-69
2021/11/18 02:06:05;;;;;;;32.00;16.43;;;6.00;99.90;;;;;;4442668;32;20192;-70
2021/11/18 02:08:32;;;;;;;32.03;16.47;;;6.00;99.90;;;;;;4442687;32;20181;-69
2021/11/18 02:11:06;;;;;;;35.87;16.17;;;5.90;99.90;;;;;;4444161;32;20225;-69
2021/11/18 02:13:33;;;;;;;34.93;16.33;;;5.90;99.90;;;;;;4443644;32;20195;-69
2021/11/18 02:16:02;;;;;;;36.57;16.57;;;5.90;99.90;;;;;;4439775;32;20175;-71
2021/11/18 02:18:36;;;;;;;32.50;16.50;;;5.90;99.90;;;;;;4439548;32;20504;-69
2021/11/18 02:21:11;;;;;;;33.97;16.43;;;5.80;99.90;;;;;;4441567;32;20229;-69
2021/11/18 02:23:46;;;;;;;36.00;17.17;;;5.80;99.90;;;;;;4440188;32;20201;-68
2021/11/18 02:26:13;;;;;;;36.10;17.40;;;5.70;99.90;;;;;;4439876;32;20237;-69
2021/11/18 02:28:43;;;;;;;32.53;16.93;;;5.70;99.90;;;;;;4439603;32;20241;-70
2021/11/18 02:31:28;;;;;;;36.37;17.90;;;5.70;99.90;;;;;;4439620;32;20178;-69
2021/11/18 02:33:56;;;;;;;33.83;17.17;;;5.70;99.90;;;;;;4439533;32;20182;-69
2021/11/18 02:36:24;;;;;;;39.23;17.93;;;5.70;99.90;;;;;;4439472;32;20241;-69
2021/11/18 02:38:51;;;;;;;39.63;17.93;;;5.70;99.90;;;;;;4439871;32;20182;-69
2021/11/18 02:41:21;;;;;;;36.87;18.30;;;5.60;99.90;;;;;;4441569;32;20229;-69
2021/11/18 02:43:48;;;;;;;39.77;18.67;;;5.60;99.90;;;;;;4426725;32;20191;-69
2021/11/18 02:46:15;;;;;;;40.77;19.33;;;5.60;99.90;;;;;;4439528;32;20449;-68
2021/11/18 02:48:42;;;;;;;42.83;19.57;;;5.60;99.90;;;;;;4439759;32;20252;-68
2021/11/18 02:51:13;;;;;;;40.27;18.97;;;5.60;99.90;;;;;;4440879;32;20174;-68
2021/11/18 02:53:40;;;;;;;44.23;19.40;;;5.60;99.90;;;;;;4440784;32;20178;-68
2021/11/18 02:56:08;;;;;;;41.20;19.67;;;5.60;99.90;;;;;;4439257;32;20183;-68
2021/11/18 02:58:35;;;;;;;45.23;20.57;;;5.50;99.90;;;;;;4439405;32;20233;-68
2021/11/18 03:01:15;;;;;;;45.57;20.17;;;5.50;99.90;;;;;;4439637;32;20227;-68
2021/11/18 03:03:43;;;;;;;46.03;20.47;;;5.50;99.90;;;;;;4440885;32;20515;-68
2021/11/18 03:06:11;;;;;;;45.73;20.00;;;5.50;99.90;;;;;;4440689;32;20179;-68
2021/11/18 03:08:39;;;;;;;48.13;20.83;;;5.50;99.90;;;;;;4440595;32;20179;-69
2021/11/18 03:11:06;;;;;;;42.83;19.20;;;5.50;99.90;;;;;;4441585;32;20213;-68
2021/11/18 03:13:34;;;;;;;42.57;19.70;;;5.50;99.90;;;;;;4439383;32;20521;-68
2021/11/18 03:16:03;;;;;;;45.40;20.20;;;5.50;99.90;;;;;;4439208;32;20203;-68
2021/11/18 03:18:30;;;;;;;41.90;18.73;;;5.50;99.90;;;;;;4438822;32;20171;-68
2021/11/18 03:21:00;;;;;;;44.73;18.07;;;5.50;99.90;;;;;;4439601;32;20570;-68
2021/11/18 03:23:27;;;;;;;43.40;20.23;;;5.50;99.90;;;;;;4440471;32;20197;-68
2021/11/18 03:25:54;;;;;;;39.50;17.87;;;5.50;99.90;;;;;;4438610;32;20198;-68
2021/11/18 03:28:26;;;;;;;40.10;18.50;;;5.60;99.90;;;;;;4439107;32;20245;-68
2021/11/18 03:30:54;;;;;;;38.20;18.23;;;5.60;99.90;;;;;;4440520;32;20216;-68
2021/11/18 03:33:28;;;;;;;38.77;18.60;;;5.60;99.90;;;;;;4439186;32;20182;-68
2021/11/18 03:35:56;;;;;;;36.63;17.83;;;5.60;99.90;;;;;;4439139;32;20200;-69
2021/11/18 03:38:25;;;;;;;37.67;17.27;;;5.60;99.90;;;;;;4426078;32;20198;-69
2021/11/18 03:40:52;;;;;;;36.57;17.57;;;5.70;99.90;;;;;;4440459;32;20200;-68
2021/11/18 03:43:21;;;;;;;34.73;17.00;;;5.70;99.90;;;;;;4440095;32;20197;-68
2021/11/18 03:45:49;;;;;;;40.67;19.00;;;5.70;99.90;;;;;;4438874;32;20508;-69
2021/11/18 03:48:19;;;;;;;38.57;17.80;;;5.70;99.90;;;;;;4438298;32;20247;-68
2021/11/18 03:50:48;;;;;;;35.30;16.93;;;5.70;99.90;;;;;;4440460;32;20186;-69
2021/11/18 03:53:16;;;;;;;37.57;17.03;;;5.70;99.90;;;;;;4426193;32;20182;-68
2021/11/18 03:55:43;;;;;;;35.63;16.90;;;5.70;99.90;;;;;;4438725;32;20178;-68
2021/11/18 03:58:10;;;;;;;36.63;18.17;;;5.70;99.90;;;;;;4438835;32;20167;-69
2021/11/18 04:00:38;;;;;;;36.13;17.00;;;5.70;99.90;;;;;;4440993;32;20414;-69
2021/11/18 04:03:08;;;;;;;35.67;17.07;;;5.70;99.90;;;;;;4440182;32;20140;-69
2021/11/18 04:05:36;;;;;;;36.77;16.97;;;5.70;99.90;;;;;;4438142;32;20551;-69
2021/11/18 04:08:03;;;;;;;35.50;16.47;;;5.70;99.90;;;;;;4439872;32;20183;-69
2021/11/18 04:10:32;;;;;;;32.67;16.97;;;5.80;99.90;;;;;;4438181;32;20233;-69
2021/11/18 04:13:00;;;;;;;33.37;16.30;;;5.80;99.90;;;;;;4438861;32;20460;-69
2021/11/18 04:15:27;;;;;;;31.17;16.03;;;5.80;99.90;;;;;;4439881;32;20194;-69
2021/11/18 04:17:55;;;;;;;32.57;16.47;;;5.80;99.90;;;;;;4438860;32;20181;-70
2021/11/18 04:20:23;;;;;;;31.30;15.57;;;5.80;99.90;;;;;;4437792;32;20200;-69
2021/11/18 04:22:51;;;;;;;33.77;16.27;;;5.90;99.90;;;;;;4439703;32;20189;-69
2021/11/18 04:25:21;;;;;;;32.90;16.43;;;5.90;99.90;;;;;;4440941;32;20209;-69
2021/11/18 04:27:48;;;;;;;32.70;16.77;;;5.90;99.90;;;;;;4438307;32;20240;-69
2021/11/18 04:30:21;;;;;;;32.07;16.30;;;5.90;99.90;;;;;;4439876;32;20174;-69
2021/11/18 04:32:48;;;;;;;33.77;15.50;;;5.90;99.90;;;;;;4438778;32;20180;-69
2021/11/18 04:35:16;;;;;;;30.17;15.80;;;5.90;99.90;;;;;;4438460;32;20197;-69
2021/11/18 04:37:43;;;;;;;33.37;16.53;;;5.90;99.90;;;;;;4440229;32;20502;-69
2021/11/18 04:40:11;;;;;;;31.27;15.40;;;5.90;99.90;;;;;;4437994;32;20212;-69
2021/11/18 04:42:41;;;;;;;36.97;17.00;;;5.90;99.90;;;;;;4438183;32;20200;-69
2021/11/18 04:45:09;;;;;;;35.67;16.33;;;5.90;99.90;;;;;;4439441;32;20197;-71
2021/11/18 04:47:37;;;;;;;35.07;16.10;;;5.90;99.90;;;;;;4439788;32;20234;-69
2021/11/18 04:50:05;;;;;;;37.27;17.03;;;5.90;99.90;;;;;;4439945;32;20224;-69
2021/11/18 04:52:32;;;;;;;33.43;16.73;;;6.00;99.90;;;;;;4437859;32;20269;-69
2021/11/18 04:54:59;;;;;;;34.87;16.87;;;5.90;99.90;;;;;;4426719;32;20206;-69
2021/11/18 04:57:29;;;;;;;33.70;16.83;;;5.90;99.90;;;;;;4439285;32;20466;-69
2021/11/18 04:59:57;;;;;;;35.30;16.50;;;6.00;99.90;;;;;;4438845;32;20464;-70
2021/11/18 05:02:24;;;;;;;36.27;16.10;;;6.00;99.90;;;;;;4438810;32;20242;-69
2021/11/18 05:04:52;;;;;;;33.07;16.60;;;6.00;99.90;;;;;;4439372;32;20202;-69
2021/11/18 05:07:20;;;;;;;39.50;17.33;;;6.00;99.90;;;;;;4439554;32;20218;-69
2021/11/18 05:09:47;;;;;;;35.60;16.80;;;6.00;99.90;;;;;;4439131;32;20407;-70
2021/11/18 05:12:14;;;;;;;35.23;17.97;;;6.00;99.90;;;;;;4437401;32;20182;-70
2021/11/18 05:14:42;;;;;;;37.63;16.70;;;6.00;99.90;;;;;;4437803;32;20175;-70
2021/11/18 05:17:09;;;;;;;37.90;17.10;;;6.00;99.90;;;;;;4437814;32;20590;-70
2021/11/18 05:19:36;;;;;;;33.30;16.97;;;6.00;99.90;;;;;;4438227;32;20527;-70
2021/11/18 05:22:04;;;;;;;36.53;17.37;;;6.00;99.90;;;;;;4438385;32;20213;-70
2021/11/18 05:24:31;;;;;;;34.33;16.63;;;6.10;99.90;;;;;;4437587;32;20586;-70
2021/11/18 05:26:57;;;;;;;34.77;17.40;;;6.00;99.90;;;;;;4438004;32;20183;-70
2021/11/18 05:29:24;;;;;;;35.03;17.07;;;6.10;99.90;;;;;;4438613;32;20236;-71
2021/11/18 05:31:51;;;;;;;36.33;17.00;;;6.10;99.90;;;;;;4439294;32;20271;-71
2021/11/18 05:34:19;;;;;;;36.70;17.57;;;6.10;99.90;;;;;;4440311;32;20241;-70
2021/11/18 05:36:46;;;;;;;35.93;16.90;;;6.10;99.90;;;;;;4441160;32;20204;-70
2021/11/18 05:39:12;;;;;;;37.30;17.00;;;6.10;99.90;;;;;;4441938;32;20233;-70
2021/11/18 05:41:39;;;;;;;35.20;17.23;;;6.10;99.90;;;;;;4443742;32;20485;-70
2021/11/18 05:44:06;;;;;;;35.20;17.63;;;6.10;99.90;;;;;;4442740;32;20484;-71
2021/11/18 05:46:35;;;;;;;38.53;17.90;;;6.10;99.90;;;;;;4441558;32;20180;-70
2021/11/18 05:49:04;;;;;;;38.13;17.60;;;6.10;99.90;;;;;;4439964;32;20606;-70
2021/11/18 05:51:32;;;;;;;36.23;17.63;;;6.10;99.90;;;;;;4440043;32;20206;-70
2021/11/18 05:53:59;;;;;;;39.67;18.77;;;6.10;99.90;;;;;;4429153;32;20208;-70
2021/11/18 05:56:29;;;;;;;41.87;18.43;;;6.10;99.90;;;;;;4441579;32;20197;-68
2021/11/18 05:58:55;;;;;;;39.57;19.20;;;6.10;99.90;;;;;;4441381;32;20234;-68
2021/11/18 06:01:28;;;;;;;39.50;19.30;;;6.00;99.90;;;;;;4439377;32;20287;-69
2021/11/18 06:03:57;;;;;;;40.00;18.73;;;6.00;99.90;;;;;;4440704;32;20186;-68
2021/11/18 06:06:26;;;;;;;41.50;19.33;;;5.90;99.90;;;;;;4440630;32;20171;-68
2021/11/18 06:08:53;;;;;;;41.83;19.23;;;6.00;99.90;;;;;;4446445;32;20491;-68
2021/11/18 06:11:20;;;;;;;45.07;20.23;;;5.90;99.90;;;;;;4440932;32;20183;-69
2021/11/18 06:13:50;;;;;;;43.23;19.80;;;5.90;99.90;;;;;;4441442;32;20171;-69
2021/11/18 06:16:18;;;;;;;42.97;20.43;;;5.90;99.90;;;;;;4440834;32;20563;-69
2021/11/18 06:18:45;;;;;;;44.83;19.20;;;5.90;99.90;;;;;;4427512;32;20194;-69
2021/11/18 06:21:12;;;;;;;43.33;20.30;;;5.90;99.90;;;;;;4441366;32;20482;-68
2021/11/18 06:23:39;;;;;;;48.60;21.03;;;5.90;99.90;;;;;;4441564;32;20174;-68
2021/11/18 06:26:06;;;;;;;43.83;20.57;;;5.90;99.90;;;;;;4439589;32;20197;-68
2021/11/18 06:28:33;;;;;;;48.63;20.07;;;5.90;99.90;;;;;;4427019;32;20233;-69
2021/11/18 06:31:05;;;;;;;48.13;21.03;;;5.90;99.90;;;;;;4441255;32;20244;-69
2021/11/18 06:33:33;;;;;;;45.63;21.27;;;6.00;99.90;;;;;;4439952;32;20212;-68
2021/11/18 06:36:00;;;;;;;52.57;22.00;;;6.00;99.90;;;;;;4440433;32;20231;-69
2021/11/18 06:38:38;;;;;;;49.57;21.33;;;6.00;99.90;;;;;;4440895;32;20178;-73
2021/11/18 06:41:06;;;;;;;46.10;20.80;;;5.90;99.90;;;;;;4440469;32;20591;-68
2021/11/18 06:43:34;;;;;;;44.07;20.67;;;6.00;99.90;;;;;;4439862;32;20215;-68
2021/11/18 06:46:01;;;;;;;48.43;20.90;;;6.00;99.90;;;;;;4439389;32;20178;-69
2021/11/18 06:48:30;;;;;;;43.30;20.20;;;6.00;99.90;;;;;;4428118;32;20198;-69
2021/11/18 06:51:08;;;;;;;49.63;20.57;;;5.90;99.90;;;;;;4440235;32;20408;-68
2021/11/18 06:53:37;;;;;;;50.13;22.50;;;6.00;99.90;;;;;;4441976;32;20147;-68
2021/11/18 06:56:06;;;;;;;44.63;21.13;;;6.00;99.90;;;;;;4439119;32;20258;-68
2021/11/18 06:58:32;;;;;;;51.07;22.23;;;6.00;99.90;;;;;;4439537;32;20212;-68
2021/11/18 07:01:00;;;;;;;46.30;21.83;;;6.00;99.90;;;;;;4438983;32;20211;-68
2021/11/18 07:03:29;;;;;;;51.83;21.83;;;5.90;99.90;;;;;;4427618;32;20174;-68
2021/11/18 07:05:55;;;;;;;48.30;21.17;;;6.00;99.90;;;;;;4440472;32;20143;-68
2021/11/18 07:08:23;;;;;;;48.20;21.27;;;5.90;99.90;;;;;;4440239;32;20231;-68
2021/11/18 07:10:50;;;;;;;48.03;22.17;;;5.90;99.90;;;;;;4438954;32;20175;-69
2021/11/18 07:13:21;;;;;;;51.43;22.83;;;5.90;99.90;;;;;;4438799;32;20171;-68
2021/11/18 07:15:48;;;;;;;50.30;22.37;;;5.90;99.90;;;;;;4441645;32;20169;-68
2021/11/18 07:18:15;;;;;;;49.53;22.07;;;5.90;99.90;;;;;;4445198;32;20182;-68
2021/11/18 07:20:43;;;;;;;50.63;22.40;;;5.90;99.90;;;;;;4440153;32;20237;-68
2021/11/18 07:23:11;;;;;;;48.83;21.73;;;5.90;99.90;;;;;;4425678;32;20198;-68
2021/11/18 07:25:38;;;;;;;48.60;22.27;;;5.90;99.90;;;;;;4440201;32;20413;-68
2021/11/18 07:28:09;;;;;;;47.53;22.10;;;5.90;99.90;;;;;;4440726;32;20183;-68
2021/11/18 07:30:37;;;;;;;51.37;22.83;;;5.90;99.90;;;;;;4438810;32;20184;-66
2021/11/18 07:33:04;;;;;;;46.37;21.47;;;5.90;99.90;;;;;;4440337;32;20541;-68
2021/11/18 07:35:31;;;;;;;52.20;22.60;;;5.90;99.90;;;;;;4440174;32;20405;-69
2021/11/18 07:37:58;;;;;;;48.23;23.13;;;5.90;99.90;;;;;;4441344;32;20148;-68
2021/11/18 07:40:25;;;;;;;50.37;22.47;;;5.90;99.90;;;;;;4440224;32;20158;-68
2021/11/18 07:42:53;;;;;;;49.83;22.10;;;5.90;99.90;;;;;;4440293;32;20234;-68
2021/11/18 07:45:22;;;;;;;50.47;21.57;;;5.90;99.90;;;;;;4425518;32;20176;-68
2021/11/18 07:47:50;;;;;;;50.07;21.40;;;5.90;99.90;;;;;;4427252;32;20194;-68
2021/11/18 07:50:18;;;;;;;50.20;21.37;;;5.90;99.90;;;;;;4438988;32;20220;-68
2021/11/18 07:52:45;;;;;;;43.87;21.13;;;5.90;99.90;;;;;;4439696;32;20194;-68
2021/11/18 07:55:15;;;;;;;44.50;21.37;;;6.00;99.90;;;;;;4437769;32;20210;-68
2021/11/18 07:57:42;;;;;;;43.00;20.90;;;6.00;99.90;;;;;;4438509;32;20197;-68
2021/11/18 08:00:12;;;;;;;45.83;20.60;;;6.00;99.90;;;;;;4444352;32;20174;-70
2021/11/18 08:02:40;;;;;;;45.30;20.80;;;6.00;99.90;;;;;;4439128;32;20187;-68
2021/11/18 08:05:08;;;;;;;42.63;20.00;;;6.00;99.90;;;;;;4439171;32;20150;-68
2021/11/18 08:07:35;;;;;;;46.93;20.00;;;6.00;99.90;;;;;;4436707;32;20170;-68
2021/11/18 08:10:05;;;;;;;42.40;19.63;;;6.10;99.90;;;;;;4439736;32;20358;-66
2021/11/18 08:12:35;;;;;;;42.00;19.00;;;6.10;99.90;;;;;;4439815;32;20179;-66
2021/11/18 08:15:04;;;;;;;40.70;18.83;;;6.10;99.90;;;;;;4438011;32;20568;-68
2021/11/18 08:17:31;;;;;;;39.50;19.20;;;6.10;99.90;;;;;;4426545;32;20173;-67
2021/11/18 08:19:58;;;;;;;40.67;19.63;;;6.10;99.90;;;;;;4437874;32;20193;-67
2021/11/18 08:22:24;;;;;;;38.90;19.13;;;6.20;99.90;;;;;;4437822;32;20197;-67
2021/11/18 08:24:51;;;;;;;40.73;18.20;;;6.20;99.90;;;;;;4438767;32;20206;-68
2021/11/18 08:27:18;;;;;;;38.93;19.17;;;6.20;99.90;;;;;;4437546;32;20183;-67
2021/11/18 08:29:47;;;;;;;36.03;18.33;;;6.20;99.90;;;;;;4443429;32;20230;-67
2021/11/18 08:32:15;;;;;;;38.10;18.23;;;6.30;99.90;;;;;;4438608;32;20249;-67
2021/11/18 08:34:43;;;;;;;38.73;17.20;;;6.30;99.90;;;;;;4439463;32;20191;-67
2021/11/18 08:37:11;;;;;;;34.33;18.20;;;6.30;99.90;;;;;;4437464;32;20186;-67
2021/11/18 08:39:39;;;;;;;36.43;17.93;;;6.30;99.90;;;;;;4437405;32;20189;-66
2021/11/18 08:42:10;;;;;;;36.90;17.50;;;6.40;99.90;;;;;;4437802;32;20215;-66
2021/11/18 08:44:38;;;;;;;41.87;17.87;;;6.40;99.90;;;;;;4437905;32;20202;-67
2021/11/18 08:47:08;;;;;;;34.50;16.70;;;6.40;99.90;;;;;;4437631;32;20210;-67
2021/11/18 08:49:35;;;;;;;37.73;18.27;;;6.40;99.90;;;;;;4437446;32;20190;-68
2021/11/18 08:52:08;;;;;;;34.63;16.40;;;6.40;99.90;;;;;;4439368;32;20249;-67
2021/11/18 08:54:38;;;;;;;30.70;15.77;;;6.50;99.90;;;;;;4438358;32;20179;-68
2021/11/18 08:57:06;;;;;;;35.17;16.63;;;6.40;99.90;;;;;;4438998;32;20166;-67
2021/11/18 08:59:33;;;;;;;28.23;14.87;;;6.50;99.90;;;;;;4438329;32;20214;-69
2021/11/18 09:02:06;;;;;;;31.03;15.90;;;6.50;99.90;;;;;;4439221;32;20535;-67
2021/11/18 09:04:34;;;;;;;31.83;15.00;;;6.50;99.90;;;;;;4438417;32;20233;-67
2021/11/18 09:07:01;;;;;;;29.90;14.93;;;6.60;99.90;;;;;;4438917;32;20178;-68
2021/11/18 09:09:28;;;;;;;29.60;14.67;;;6.60;99.90;;;;;;4440278;32;20533;-68
2021/11/18 09:11:57;;;;;;;31.33;14.80;;;6.70;99.90;;;;;;4442915;32;20202;-68
2021/11/18 09:14:27;;;;;;;28.57;13.60;;;6.80;99.90;;;;;;4440744;32;20187;-67
2021/11/18 09:16:55;;;;;;;26.70;13.10;;;6.80;99.90;;;;;;4441056;32;20279;-67
2021/11/18 09:19:27;;;;;;;23.47;13.77;;;6.90;99.90;;;;;;4456264;32;20186;-67
2021/11/18 09:21:54;;;;;;;25.93;13.00;;;7.00;99.90;;;;;;4457389;32;20229;-67
2021/11/18 09:24:30;;;;;;;27.07;13.53;;;7.10;99.90;;;;;;4455790;32;20173;-67
2021/11/18 09:27:01;;;;;;;25.30;12.83;;;7.10;99.90;;;;;;4459141;32;20165;-68
2021/11/18 09:29:29;;;;;;;22.83;13.67;;;7.00;99.90;;;;;;4456656;32;20269;-67
2021/11/18 09:31:57;;;;;;;25.93;13.07;;;7.00;99.90;;;;;;4456050;32;20246;-68
2021/11/18 09:34:25;;;;;;;21.77;12.73;;;7.00;99.90;;;;;;4455784;32;20183;-68
2021/11/18 09:36:54;;;;;;;25.20;12.53;;;7.00;99.90;;;;;;4456233;32;20388;-68
2021/11/18 09:39:24;;;;;;;28.77;13.57;;;6.90;99.90;;;;;;4455821;32;20248;-68
2021/11/18 09:42:08;;;;;;;22.93;12.77;;;6.90;99.90;;;;;;4456244;32;20177;-69
2021/11/18 09:44:47;;;;;;;27.57;12.77;;;6.90;99.90;;;;;;4456870;32;20172;-69
2021/11/18 09:47:51;;;;;;;25.23;12.00;;;7.00;99.90;;;;;;4455352;32;20179;-68
2021/11/18 09:50:27;;;;;;;24.93;12.57;;;7.00;99.90;;;;;;4444864;32;20185;-68
2021/11/18 09:53:22;;;;;;;27.33;12.47;;;7.10;99.90;;;;;;4442246;32;20222;-68
2021/11/18 09:56:07;;;;;;;23.00;12.17;;;7.10;99.90;;;;;;4443089;32;20192;-69
2021/11/18 09:58:59;;;;;;;21.53;11.33;;;7.10;99.90;;;;;;4430061;32;20179;-67
2021/11/18 10:02:03;;;;;;;22.27;12.57;;;7.10;99.90;;;;;;4457991;32;20177;-68
2021/11/18 10:04:54;;;;;;;24.10;11.57;;;7.20;99.90;;;;;;4442877;32;20201;-68
2021/11/18 10:07:44;;;;;;;21.27;12.07;;;7.10;99.90;;;;;;4432517;32;20482;-68
2021/11/18 10:10:30;;;;;;;25.03;12.37;;;7.10;99.90;;;;;;4442598;32;20467;-68
2021/11/18 10:13:24;;;;;;;26.57;12.17;;;7.10;99.90;;;;;;4442162;32;20170;-69
2021/11/18 10:16:15;;;;;;;24.10;12.00;;;7.10;99.90;;;;;;4442799;32;20173;-68
2021/11/18 10:18:47;;;;;;;33.60;12.43;;;7.10;99.90;;;;;;4442757;32;20216;-68
2021/11/18 10:21:22;;;;;;;22.67;11.33;;;7.20;99.90;;;;;;4442387;32;20231;-69
2021/11/18 10:23:55;;;;;;;22.23;11.13;;;7.20;99.90;;;;;;4428652;32;20210;-69
2021/11/18 10:26:29;;;;;;;20.40;11.27;;;7.20;99.90;;;;;;4453254;32;20249;-68
2021/11/18 10:29:32;;;;;;;18.03;10.60;;;7.30;99.90;;;;;;4456328;32;20187;-70
2021/11/18 10:32:06;;;;;;;24.27;11.33;;;7.30;99.90;;;;;;4381901;32;20230;-68
2021/11/18 10:35:08;;;;;;;19.50;10.77;;;7.30;99.90;;;;;;4380226;32;20761;-67
2021/11/18 10:37:39;;;;;;;24.30;10.53;;;7.30;99.90;;;;;;4380069;32;20196;-68
2021/11/18 10:40:19;;;;;;;19.10;10.13;;;7.40;99.90;;;;;;4379732;32;20537;-68
2021/11/18 10:43:15;;;;;;;20.00;9.93;;;7.40;99.90;;;;;;4393506;32;20174;-66
2021/11/18 10:45:52;;;;;;;25.80;9.87;;;7.40;99.90;;;;;;4333588;33;20220;-66
2021/11/18 10:48:29;;;;;;;23.10;9.80;;;7.40;99.90;;;;;;4322164;33;20242;-68
2021/11/18 10:51:05;;;;;;;19.53;9.33;;;7.30;99.90;;;;;;4321467;33;20204;-70
2021/11/18 10:53:48;;;;;;;18.60;9.33;;;7.40;99.90;;;;;;4321866;33;20184;-69
2021/11/18 10:56:19;;;;;;;17.53;9.40;;;7.40;99.90;;;;;;4320504;33;20184;-69
2021/11/18 10:59:00;;;;;;;18.77;9.10;;;7.40;99.90;;;;;;4324876;33;20164;-68
2021/11/18 11:01:27;;;;;;;19.77;9.80;;;7.40;99.90;;;;;;4320657;33;20247;-68
2021/11/18 11:03:58;;;;;;;20.73;9.97;;;7.50;99.90;;;;;;4321252;33;20615;-69
2021/11/18 11:06:28;;;;;;;19.93;9.33;;;7.50;99.90;;;;;;4321306;32;20229;-68
2021/11/18 11:09:15;;;;;;;18.73;8.63;;;7.50;99.90;;;;;;4377780;32;20218;-68
2021/11/18 11:12:01;;;;;;;20.17;8.33;;;7.40;99.90;;;;;;4365604;32;20469;-68
2021/11/18 11:14:56;;;;;;;19.53;9.27;;;7.50;99.90;;;;;;4365976;32;20174;-69
2021/11/18 11:17:51;;;;;;;14.50;8.00;;;7.50;99.90;;;;;;4369133;32;20234;-71
2021/11/18 11:20:25;;;;;;;18.07;8.47;;;7.50;99.90;;;;;;4363244;32;20228;-71
2021/11/18 11:23:07;;;;;;;13.90;7.93;;;7.40;99.90;;;;;;4391609;32;20240;-71
2021/11/18 11:26:08;;;;;;;19.40;8.10;;;7.40;99.90;;;;;;4429639;32;20227;-71
2021/11/18 11:28:41;;;;;;;19.07;7.93;;;7.50;99.90;;;;;;4439907;32;20231;-71
2021/11/18 11:31:36;;;;;;;15.40;7.30;;;7.50;99.90;;;;;;4440056;32;20513;-70
2021/11/18 11:34:15;;;;;;;14.00;5.97;;;7.60;99.90;;;;;;4440281;32;20158;-70
2021/11/18 11:37:04;;;;;;;12.17;5.47;;;7.70;99.90;;;;;;4439558;32;20179;-69
2021/11/18 11:39:48;;;;;;;12.80;6.10;;;7.70;99.90;;;;;;4438212;32;20202;-70
2021/11/18 11:42:43;;;;;;;12.30;5.83;;;7.80;99.90;;;;;;4439584;32;20219;-70
2021/11/18 11:45:37;;;;;;;11.87;5.93;;;7.80;99.90;;;;;;4441044;32;20442;-69
2021/11/18 11:48:18;;;;;;;12.97;5.57;;;7.70;99.90;;;;;;4437237;32;20565;-68
2021/11/18 11:51:13;;;;;;;12.90;5.13;;;7.80;99.90;;;;;;4436122;32;20190;-69
2021/11/18 11:54:19;;;;;;;11.87;4.47;;;7.80;99.90;;;;;;4441209;32;20235;-67
2021/11/18 11:56:53;;;;;;;11.30;5.20;;;7.70;99.90;;;;;;4428287;32;20224;-67
2021/11/18 11:59:29;;;;;;;10.93;5.17;;;7.80;99.90;;;;;;4439478;32;20193;-68
2021/11/18 12:02:08;;;;;;;9.93;4.97;;;7.80;99.90;;;;;;4438115;32;20193;-69
2021/11/18 12:04:44;;;;;;;10.37;5.10;;;7.80;99.90;;;;;;4438497;32;20170;-69
2021/11/18 12:07:34;;;;;;;12.40;5.23;;;7.80;99.90;;;;;;4439969;32;20258;-69
2021/11/18 12:10:22;;;;;;;13.43;5.43;;;7.70;99.90;;;;;;4439754;32;20554;-69
2021/11/18 12:13:15;;;;;;;12.30;5.57;;;7.70;99.90;;;;;;4438174;32;20549;-68
2021/11/18 12:15:47;;;;;;;18.87;5.70;;;7.60;99.90;;;;;;4438018;32;20191;-68
2021/11/18 12:18:24;;;;;;;16.93;6.03;;;7.60;99.90;;;;;;4424940;32;20288;-68
2021/11/18 12:20:54;;;;;;;13.40;5.63;;;7.50;99.90;;;;;;4438033;32;20318;-67
2021/11/18 12:23:21;;;;;;;14.53;6.47;;;7.50;99.90;;;;;;4437658;32;20209;-69
2021/11/18 12:25:48;;;;;;;12.23;6.40;;;7.50;99.90;;;;;;4436706;32;20190;-69
2021/11/18 12:28:21;;;;;;;16.93;6.77;;;7.50;99.90;;;;;;4447051;32;20567;-68
2021/11/18 12:31:07;;;;;;;17.83;6.67;;;7.50;99.90;;;;;;4433146;32;20247;-68
2021/11/18 12:33:43;;;;;;;17.50;6.90;;;7.50;99.90;;;;;;4438031;32;20225;-68
2021/11/18 12:36:36;;;;;;;15.23;6.37;;;7.50;99.90;;;;;;4439173;32;20253;-69
2021/11/18 12:39:52;;;;;;;13.90;7.10;;;7.60;99.90;;;;;;4421933;32;20208;-69
2021/11/18 12:42:41;;;;;;;12.67;6.50;;;7.60;99.90;;;;;;4429245;32;20174;-68
2021/11/18 12:45:40;;;;;;;11.83;6.40;;;7.50;99.90;;;;;;4442538;32;20240;-69
2021/11/18 12:48:14;;;;;;;18.00;7.03;;;7.60;99.90;;;;;;4441485;32;20639;-68
2021/11/18 12:51:02;;;;;;;13.97;6.90;;;7.60;99.90;;;;;;4442171;32;20202;-68
2021/11/18 12:53:36;;;;;;;16.17;7.30;;;7.60;99.90;;;;;;4419217;32;20497;-68
2021/11/18 12:56:14;;;;;;;15.73;6.57;;;7.60;99.90;;;;;;4440279;32;20171;-67
2021/11/18 12:58:44;;;;;;;14.63;7.20;;;7.60;99.90;;;;;;4439153;32;20537;-68
2021/11/18 13:01:38;;;;;;;18.97;7.17;;;7.70;99.90;;;;;;4440307;32;20531;-68
2021/11/18 13:04:06;;;;;;;18.03;7.30;;;7.80;99.90;;;;;;4376778;32;20223;-67